CPV2 weather

Orangeville / Castlewood Field
Orangeville, Ontario, Canada

Public forecast

Using degrees Celsius for public forecast. Weather courtesy of forecast.io.

Closest aviation weather report (METAR) to Orangeville / Castlewood Field

Closest report is CFB Borden, 21.5 nm (39.8 km) NNE. Retrieved 2019/11/23 00:00 UTC (27 minutes ago):

CYBN 230000Z AUTO 00000KT 9SM CLR M02/M07 A3002 RMK SLP175

Closest aviation forecast (TAF) to Orangeville / Castlewood Field

Closest forecast is CFB Borden, 21.5 nm (39.8 km) NNE. Retrieved 2019/11/22 18:33 UTC (6 hours ago):

TAF TAF CYBN 221730Z 2218/2306 30020G30KT 2SM -SHSN VV010 TEMPO 2218/2222 30010G25KT P6SM NSW BKN025 PROB30 2218/2222 3/4SM -SHSN VV006 FM222200 30010KT P6SM BKN025 BECMG 2303/2305 26005KT RMK FCST BASED ON AUTO OBS NXT FCST BY 230000Z